Time;durP1;ratioP1;P1;durP2;ratioP2;P2;SDS_P1;SDS_P2;PMS_P1;PMS_P2;Temp;Humidity;BMP_temperature;BMP_pressure;BME280_temperature;BME280_humidity;BME280_pressure;Samples;Min_cycle;Max_cycle;Signal;HPM_P1;HPM_P2
2020/12/25 00:02:22;;;;;;;25.02;15.27;;;5.00;90.30;;;;;;5052137;28;20040;-64
2020/12/25 00:04:47;;;;;;;23.20;14.18;;;5.00;90.10;;;;;;5052081;28;20045;-63
2020/12/25 00:07:13;;;;;;;25.38;15.23;;;5.10;90.10;;;;;;5052945;28;20033;-64
2020/12/25 00:09:39;;;;;;;27.25;16.08;;;4.90;90.30;;;;;;5057826;28;20058;-62
2020/12/25 00:12:07;;;;;;;22.20;14.60;;;5.00;90.10;;;;;;5051770;28;20033;-63
2020/12/25 00:14:32;;;;;;;26.48;15.30;;;5.20;90.20;;;;;;5051593;28;20029;-63
2020/12/25 00:16:58;;;;;;;20.15;14.77;;;5.30;89.50;;;;;;5034044;28;20037;-62
2020/12/25 00:19:24;;;;;;;23.52;15.80;;;5.30;89.30;;;;;;5035293;28;20064;-63
2020/12/25 00:21:50;;;;;;;20.67;14.73;;;5.30;89.20;;;;;;5056439;28;20068;-62
2020/12/25 00:24:15;;;;;;;23.73;14.82;;;5.30;89.10;;;;;;5058647;28;20037;-62
2020/12/25 00:26:41;;;;;;;23.17;14.43;;;5.20;89.90;;;;;;5059739;28;20036;-63
2020/12/25 00:29:06;;;;;;;22.40;14.90;;;5.20;90.00;;;;;;5062920;28;20117;-62
2020/12/25 00:31:34;;;;;;;25.85;14.93;;;5.30;89.90;;;;;;5053595;28;20037;-63
2020/12/25 00:34:05;;;;;;;23.17;14.50;;;5.20;90.00;;;;;;5051985;28;20120;-62
2020/12/25 00:36:32;;;;;;;23.48;15.32;;;5.30;90.10;;;;;;5034023;28;20040;-61
2020/12/25 00:39:00;;;;;;;25.17;16.92;;;5.30;90.00;;;;;;5051675;28;20029;-63
2020/12/25 00:41:26;;;;;;;23.23;15.50;;;5.40;89.70;;;;;;5051885;28;20120;-62
2020/12/25 00:43:53;;;;;;;25.55;15.93;;;5.40;90.00;;;;;;5049309;28;20097;-66
2020/12/25 00:46:19;;;;;;;24.50;15.70;;;5.30;90.00;;;;;;5052008;28;20029;-64
2020/12/25 00:48:45;;;;;;;24.83;15.18;;;5.30;89.70;;;;;;5067533;28;20544;-62
2020/12/25 00:51:18;;;;;;;24.67;16.45;;;5.30;90.00;;;;;;5075548;28;20119;-63
2020/12/25 00:53:45;;;;;;;27.65;16.90;;;5.30;90.10;;;;;;5067925;28;20041;-64
2020/12/25 00:56:11;;;;;;;27.77;17.05;;;5.30;90.20;;;;;;5055668;28;20106;-63
2020/12/25 00:58:38;;;;;;;22.25;15.50;;;5.30;90.30;;;;;;5055587;28;20029;-63
2020/12/25 01:01:05;;;;;;;27.45;16.58;;;5.30;90.20;;;;;;5055474;28;20032;-63
2020/12/25 01:03:31;;;;;;;26.60;18.13;;;5.20;90.50;;;;;;5055150;28;20044;-62
2020/12/25 01:05:57;;;;;;;30.27;16.98;;;5.10;90.70;;;;;;5037201;28;20041;-63
2020/12/25 01:08:23;;;;;;;26.55;18.33;;;5.20;90.70;;;;;;5054887;28;20565;-63
2020/12/25 01:10:48;;;;;;;24.52;16.20;;;5.20;90.60;;;;;;5054890;28;20028;-62
2020/12/25 01:13:15;;;;;;;28.48;16.80;;;5.20;90.70;;;;;;5054576;28;20048;-64
2020/12/25 01:15:41;;;;;;;29.65;18.65;;;5.20;90.80;;;;;;5054520;28;20037;-64
2020/12/25 01:18:07;;;;;;;24.90;15.88;;;5.10;91.10;;;;;;5054458;28;20041;-65
2020/12/25 01:20:34;;;;;;;29.00;16.83;;;5.10;91.00;;;;;;5054862;28;20047;-64
2020/12/25 01:22:59;;;;;;;24.27;15.57;;;5.10;90.90;;;;;;5021325;28;20400;-65
2020/12/25 01:25:25;;;;;;;17.25;11.70;;;5.00;91.00;;;;;;5057065;28;20044;-65
2020/12/25 01:27:50;;;;;;;15.30;9.50;;;5.00;89.90;;;;;;5059836;28;20495;-66
2020/12/25 01:30:16;;;;;;;11.32;7.60;;;4.90;90.00;;;;;;5055007;28;20041;-65
2020/12/25 01:32:42;;;;;;;12.45;8.50;;;4.90;89.40;;;;;;5054328;28;20044;-64
2020/12/25 01:35:08;;;;;;;13.63;9.23;;;4.90;90.20;;;;;;5036162;28;20029;-64
2020/12/25 01:37:33;;;;;;;14.43;8.10;;;4.90;90.00;;;;;;5016678;28;20385;-63
2020/12/25 01:39:59;;;;;;;13.60;7.32;;;4.90;90.10;;;;;;5034616;28;20040;-64
2020/12/25 01:42:24;;;;;;;10.45;6.70;;;4.90;90.20;;;;;;5034706;28;20041;-64
2020/12/25 01:44:50;;;;;;;10.88;6.75;;;5.00;89.60;;;;;;5031850;28;20055;-64
2020/12/25 01:47:17;;;;;;;16.52;6.70;;;5.00;89.30;;;;;;5034199;28;20117;-63
2020/12/25 01:49:44;;;;;;;12.05;6.93;;;4.90;89.80;;;;;;5073652;28;20119;-63
2020/12/25 01:52:12;;;;;;;7.35;5.63;;;4.90;90.20;;;;;;5074135;28;20047;-63
2020/12/25 01:54:37;;;;;;;11.27;6.15;;;4.90;89.80;;;;;;5059319;28;20075;-63
2020/12/25 01:57:04;;;;;;;7.85;5.85;;;4.80;90.30;;;;;;5036293;28;20025;-65
2020/12/25 01:59:30;;;;;;;7.68;5.65;;;4.80;90.10;;;;;;5052911;28;20033;-63
2020/12/25 02:01:57;;;;;;;12.27;5.85;;;4.70;89.90;;;;;;5054154;28;20037;-62
2020/12/25 02:04:22;;;;;;;11.68;5.85;;;4.70;90.30;;;;;;5053764;28;20067;-63
2020/12/25 02:06:49;;;;;;;8.75;5.97;;;4.70;90.50;;;;;;5054901;28;20037;-63
2020/12/25 02:09:15;;;;;;;8.82;5.38;;;4.80;90.20;;;;;;5056463;28;20041;-63
2020/12/25 02:11:41;;;;;;;10.10;5.97;;;4.90;90.20;;;;;;5058634;28;20044;-62
2020/12/25 02:14:07;;;;;;;10.80;6.25;;;4.90;90.10;;;;;;5053489;28;20052;-62
2020/12/25 02:16:32;;;;;;;7.82;5.32;;;4.80;90.50;;;;;;5053855;28;20052;-63
2020/12/25 02:18:58;;;;;;;7.65;5.20;;;4.80;90.50;;;;;;5054745;28;20032;-64
2020/12/25 02:21:23;;;;;;;9.23;6.35;;;4.70;90.40;;;;;;5053220;28;20104;-64
2020/12/25 02:23:49;;;;;;;6.75;5.65;;;4.80;90.40;;;;;;5053015;28;20029;-63
2020/12/25 02:26:15;;;;;;;9.27;5.60;;;4.90;90.20;;;;;;5053016;28;20032;-63
2020/12/25 02:28:41;;;;;;;8.65;5.38;;;4.80;90.20;;;;;;5053940;28;20025;-63
2020/12/25 02:31:07;;;;;;;7.35;5.47;;;4.70;90.20;;;;;;5053606;28;20037;-63
2020/12/25 02:33:33;;;;;;;9.95;5.60;;;4.70;90.30;;;;;;5035167;28;20491;-63
2020/12/25 02:35:59;;;;;;;9.95;5.90;;;4.70;90.20;;;;;;5052758;28;20025;-63
2020/12/25 02:38:25;;;;;;;7.93;5.80;;;4.70;90.30;;;;;;5053019;28;20035;-63
2020/12/25 02:40:51;;;;;;;6.50;4.80;;;4.70;90.30;;;;;;5053647;28;20025;-63
2020/12/25 02:43:16;;;;;;;6.10;4.70;;;4.60;90.10;;;;;;5053435;28;20094;-63
2020/12/25 02:45:42;;;;;;;6.28;4.53;;;4.50;90.30;;;;;;5051164;28;20088;-63
2020/12/25 02:48:07;;;;;;;7.57;4.20;;;4.40;90.40;;;;;;5059644;28;20028;-63
2020/12/25 02:50:34;;;;;;;7.20;4.68;;;4.40;90.30;;;;;;5056094;28;20083;-63
2020/12/25 02:53:00;;;;;;;8.80;4.53;;;4.40;90.40;;;;;;5072085;28;20029;-63
2020/12/25 02:55:25;;;;;;;5.90;4.22;;;4.40;90.40;;;;;;5034534;28;20082;-63
2020/12/25 02:57:51;;;;;;;8.13;4.75;;;4.30;90.40;;;;;;5052721;28;20078;-63
2020/12/25 03:00:17;;;;;;;9.27;5.10;;;4.40;90.60;;;;;;5052456;28;20029;-63
2020/12/25 03:02:42;;;;;;;6.30;4.95;;;4.40;90.60;;;;;;5052664;28;20618;-63
2020/12/25 03:05:08;;;;;;;6.50;4.50;;;4.30;90.90;;;;;;5052525;28;20515;-62
2020/12/25 03:07:33;;;;;;;11.07;5.30;;;4.30;90.60;;;;;;5054586;28;20055;-63
2020/12/25 03:09:59;;;;;;;10.90;5.28;;;4.40;90.40;;;;;;5057427;28;20040;-63
2020/12/25 03:12:24;;;;;;;7.80;4.70;;;4.40;90.30;;;;;;5052598;28;20033;-64
2020/12/25 03:14:50;;;;;;;11.55;7.70;;;4.40;90.10;;;;;;5052934;28;20039;-63
2020/12/25 03:17:16;;;;;;;6.80;5.10;;;4.40;90.30;;;;;;5053919;28;20519;-63
2020/12/25 03:19:41;;;;;;;5.35;4.65;;;4.50;90.20;;;;;;5053362;28;20029;-63
2020/12/25 03:22:07;;;;;;;7.38;4.47;;;4.60;90.20;;;;;;5052297;28;20044;-64
2020/12/25 03:24:32;;;;;;;7.07;4.95;;;4.60;90.00;;;;;;5051741;28;20036;-64
2020/12/25 03:26:58;;;;;;;8.63;4.90;;;4.60;90.10;;;;;;5052411;28;20068;-63
2020/12/25 03:29:24;;;;;;;9.43;5.82;;;4.60;90.30;;;;;;5052198;28;20041;-63
2020/12/25 03:31:50;;;;;;;6.75;5.63;;;4.70;90.30;;;;;;5052582;28;20127;-63
2020/12/25 03:34:16;;;;;;;11.40;6.25;;;4.60;90.40;;;;;;5052019;28;20054;-65
2020/12/25 03:36:42;;;;;;;12.00;5.85;;;4.50;90.10;;;;;;5052864;28;20403;-63
2020/12/25 03:39:08;;;;;;;7.82;5.57;;;4.40;90.10;;;;;;5050340;28;20033;-63
2020/12/25 03:41:34;;;;;;;9.55;5.40;;;4.40;90.10;;;;;;5051867;28;20507;-63
2020/12/25 03:43:59;;;;;;;7.68;5.47;;;4.50;90.00;;;;;;5050500;28;20415;-63
2020/12/25 03:46:25;;;;;;;9.40;6.40;;;4.40;89.50;;;;;;5051033;28;20407;-62
2020/12/25 03:48:50;;;;;;;7.70;5.22;;;4.40;89.20;;;;;;5064098;28;20036;-62
2020/12/25 03:51:16;;;;;;;9.32;5.60;;;4.30;89.50;;;;;;5071726;28;20032;-63
2020/12/25 03:53:41;;;;;;;11.27;6.93;;;4.40;89.00;;;;;;5063172;28;20021;-62
2020/12/25 03:56:07;;;;;;;9.55;5.38;;;4.40;88.90;;;;;;5033399;28;20028;-61
2020/12/25 03:58:32;;;;;;;6.28;5.20;;;4.30;88.90;;;;;;5051760;28;20072;-61
2020/12/25 04:00:58;;;;;;;7.72;5.43;;;4.30;89.10;;;;;;5052131;28;20044;-62
2020/12/25 04:03:23;;;;;;;7.07;5.35;;;4.30;89.60;;;;;;5052293;28;20040;-62
2020/12/25 04:05:49;;;;;;;8.90;5.30;;;4.40;89.50;;;;;;5051455;28;20029;-63
2020/12/25 04:08:15;;;;;;;9.40;4.72;;;4.30;89.50;;;;;;5051569;28;20480;-63
2020/12/25 04:10:40;;;;;;;8.93;4.78;;;4.30;89.50;;;;;;5051591;28;20033;-62
2020/12/25 04:13:06;;;;;;;8.48;4.47;;;4.30;89.30;;;;;;5053542;28;20029;-63
2020/12/25 04:15:32;;;;;;;8.45;4.82;;;4.30;89.20;;;;;;5054200;28;20095;-64
2020/12/25 04:17:57;;;;;;;8.13;4.90;;;4.30;89.00;;;;;;5039784;28;20071;-63
2020/12/25 04:20:23;;;;;;;5.90;4.70;;;4.30;88.80;;;;;;5062275;28;20039;-63
2020/12/25 04:22:48;;;;;;;6.30;4.57;;;4.20;88.80;;;;;;5062776;28;20029;-63
2020/12/25 04:25:14;;;;;;;6.38;4.72;;;4.20;88.70;;;;;;5055273;28;20673;-63
2020/12/25 04:27:40;;;;;;;9.40;4.75;;;4.10;88.80;;;;;;5037999;28;20033;-63
2020/12/25 04:30:06;;;;;;;7.05;4.65;;;4.20;89.00;;;;;;5055162;28;20059;-62
2020/12/25 04:32:32;;;;;;;4.82;4.20;;;4.20;88.80;;;;;;5055307;28;20036;-62
2020/12/25 04:34:57;;;;;;;7.72;4.95;;;4.20;88.50;;;;;;5055244;28;20025;-63
2020/12/25 04:37:23;;;;;;;6.57;4.35;;;4.30;88.40;;;;;;5055242;28;20494;-63
2020/12/25 04:39:51;;;;;;;6.50;4.07;;;4.20;88.10;;;;;;5055127;28;20419;-63
2020/12/25 04:42:16;;;;;;;4.97;3.88;;;4.10;87.40;;;;;;5055507;28;20048;-62
2020/12/25 04:44:42;;;;;;;5.82;3.80;;;4.00;87.00;;;;;;5053741;28;20041;-63
2020/12/25 04:47:11;;;;;;;7.88;3.47;;;4.00;87.10;;;;;;5056561;28;20044;-62
2020/12/25 04:49:38;;;;;;;6.30;3.83;;;4.00;87.00;;;;;;5081173;28;20032;-63
2020/12/25 04:52:05;;;;;;;4.93;3.25;;;4.10;86.60;;;;;;5080319;28;20037;-61
2020/12/25 04:54:31;;;;;;;6.22;3.92;;;4.10;85.90;;;;;;5063139;28;20029;-62
2020/12/25 04:56:58;;;;;;;5.18;3.38;;;4.20;86.00;;;;;;5037422;28;20549;-61
2020/12/25 04:59:26;;;;;;;5.97;3.50;;;4.10;85.10;;;;;;5054876;28;20501;-60
2020/12/25 05:01:54;;;;;;;3.55;2.85;;;4.10;84.60;;;;;;5055006;28;20536;-63
2020/12/25 05:04:21;;;;;;;7.20;3.67;;;3.90;83.90;;;;;;5036534;28;20104;-62
2020/12/25 05:06:51;;;;;;;6.03;2.70;;;3.90;84.00;;;;;;5054449;28;20082;-64
2020/12/25 05:09:26;;;;;;;6.55;3.05;;;3.90;83.20;;;;;;5054770;28;20071;-62
2020/12/25 05:11:55;;;;;;;3.80;2.45;;;3.90;83.90;;;;;;5054810;28;20037;-63
2020/12/25 05:14:29;;;;;;;4.35;2.45;;;3.90;83.00;;;;;;5054412;28;20115;-63
2020/12/25 05:16:57;;;;;;;6.47;2.47;;;3.90;83.20;;;;;;5054789;28;20506;-63
2020/12/25 05:19:32;;;;;;;4.32;2.45;;;3.90;81.90;;;;;;5055087;28;20033;-64
2020/12/25 05:21:59;;;;;;;;;;;3.80;81.40;;;;;;5055306;28;20198;-64
2020/12/25 05:24:25;;;;;;;5.28;2.53;;;3.90;80.80;;;;;;5053990;28;19951;-62
2020/12/25 05:26:55;;;;;;;5.55;2.25;;;3.80;80.10;;;;;;5036563;28;20032;-63
2020/12/25 05:29:27;;;;;;;3.97;2.10;;;3.70;79.60;;;;;;5054405;28;20127;-64
2020/12/25 05:31:54;;;;;;;3.65;2.88;;;3.70;79.90;;;;;;5054140;28;20041;-63
2020/12/25 05:34:22;;;;;;;5.55;2.50;;;3.70;80.10;;;;;;5035883;28;20036;-64
2020/12/25 05:36:52;;;;;;;2.70;2.10;;;3.70;80.30;;;;;;5054218;28;20086;-62
2020/12/25 05:39:47;;;;;;;3.72;2.50;;;3.70;80.50;;;;;;5054004;28;20083;-63
2020/12/25 05:42:13;;;;;;;3.13;2.17;;;3.70;80.40;;;;;;5036743;28;20321;-62
2020/12/25 05:44:48;;;;;;;3.15;2.45;;;3.70;80.70;;;;;;5052578;28;20155;-63
2020/12/25 05:47:17;;;;;;;5.20;3.00;;;3.60;80.20;;;;;;5054368;28;20065;-63
2020/12/25 05:49:44;;;;;;;5.63;2.67;;;3.60;80.70;;;;;;5074168;28;20111;-62
2020/12/25 05:52:12;;;;;;;3.65;2.50;;;3.60;80.10;;;;;;5074247;28;20117;-62
2020/12/25 05:54:41;;;;;;;4.30;2.50;;;3.60;79.70;;;;;;5059844;28;20029;-61
2020/12/25 05:57:08;;;;;;;7.00;2.53;;;3.70;80.10;;;;;;5053819;28;20388;-62
2020/12/25 05:59:34;;;;;;;6.78;2.75;;;3.70;79.80;;;;;;5053899;28;20029;-62
2020/12/25 06:02:04;;;;;;;3.80;1.95;;;3.70;80.40;;;;;;5053732;28;20037;-63
2020/12/25 06:04:33;;;;;;;6.10;2.53;;;3.70;80.30;;;;;;5053417;28;20112;-62
2020/12/25 06:07:00;;;;;;;4.88;2.45;;;3.80;80.30;;;;;;5053585;28;20028;-63
2020/12/25 06:09:31;;;;;;;4.78;2.50;;;3.70;80.80;;;;;;5053532;28;20068;-62
2020/12/25 06:11:58;;;;;;;4.38;2.28;;;3.80;81.30;;;;;;5053265;28;20037;-63
2020/12/25 06:14:23;;;;;;;7.45;2.40;;;3.90;81.20;;;;;;5053303;28;20037;-63
2020/12/25 06:17:12;;;;;;;6.18;2.90;;;4.00;81.40;;;;;;5053634;28;20083;-63
2020/12/25 06:19:40;;;;;;;4.40;2.80;;;3.80;81.80;;;;;;5053261;28;20449;-62
2020/12/25 06:22:18;;;;;;;5.85;3.15;;;3.80;82.60;;;;;;5053607;28;20099;-62
2020/12/25 06:24:45;;;;;;;5.55;3.15;;;3.90;83.00;;;;;;5051767;28;20048;-62
2020/12/25 06:27:14;;;;;;;7.07;3.20;;;3.90;82.90;;;;;;5053347;28;20446;-63
2020/12/25 06:29:45;;;;;;;7.35;3.83;;;3.90;83.20;;;;;;5019170;28;20029;-63
2020/12/25 06:32:12;;;;;;;6.50;3.88;;;3.90;83.70;;;;;;5055407;28;20060;-63
2020/12/25 06:34:48;;;;;;;5.40;3.45;;;3.90;84.10;;;;;;5059629;28;20021;-63
2020/12/25 06:37:16;;;;;;;7.32;3.80;;;3.80;84.10;;;;;;5056471;28;20125;-63
2020/12/25 06:39:52;;;;;;;7.93;3.88;;;4.00;83.90;;;;;;5052795;28;20147;-63
2020/12/25 06:42:32;;;;;;;5.30;3.42;;;3.90;83.50;;;;;;5050840;28;20094;-62
2020/12/25 06:45:03;;;;;;;5.72;3.40;;;3.80;83.50;;;;;;5052545;28;20069;-62
2020/12/25 06:47:32;;;;;;;6.05;3.25;;;3.80;83.70;;;;;;5054321;28;20025;-62
2020/12/25 06:49:58;;;;;;;6.70;3.33;;;3.70;83.70;;;;;;5072806;28;20490;-61
2020/12/25 06:52:27;;;;;;;8.20;3.45;;;3.70;83.90;;;;;;5072418;28;20041;-63
2020/12/25 06:54:52;;;;;;;6.07;3.70;;;3.70;84.10;;;;;;5055710;28;20036;-63
2020/12/25 06:57:18;;;;;;;5.30;3.97;;;3.70;83.20;;;;;;5052725;28;20037;-63
2020/12/25 06:59:47;;;;;;;6.97;2.90;;;3.70;83.70;;;;;;5052854;28;20037;-63
2020/12/25 07:02:14;;;;;;;5.80;2.88;;;3.70;82.70;;;;;;5053006;28;20049;-62
2020/12/25 07:04:43;;;;;;;6.47;3.20;;;3.70;83.60;;;;;;5052245;28;20114;-63
2020/12/25 07:07:09;;;;;;;5.65;2.88;;;3.70;83.00;;;;;;5052106;28;20037;-63
2020/12/25 07:09:48;;;;;;;6.65;3.10;;;3.70;83.80;;;;;;5035069;28;20670;-63
2020/12/25 07:12:20;;;;;;;5.22;3.20;;;3.70;83.10;;;;;;5052847;28;20036;-63
2020/12/25 07:14:46;;;;;;;5.55;2.80;;;3.70;83.60;;;;;;5034254;28;20426;-61
2020/12/25 07:17:11;;;;;;;5.60;3.20;;;3.70;83.70;;;;;;5052476;28;20110;-63
2020/12/25 07:19:40;;;;;;;5.05;3.17;;;3.70;83.00;;;;;;5052391;28;20021;-62
2020/12/25 07:22:07;;;;;;;5.45;3.67;;;3.50;83.80;;;;;;5052281;28;20063;-63
2020/12/25 07:24:37;;;;;;;4.82;3.17;;;3.40;84.30;;;;;;5052037;28;20099;-62
2020/12/25 07:27:04;;;;;;;9.63;3.47;;;3.50;84.50;;;;;;5052850;28;20032;-63
2020/12/25 07:29:30;;;;;;;5.28;2.95;;;3.50;84.60;;;;;;5054205;28;20040;-62
2020/12/25 07:31:55;;;;;;;8.10;3.95;;;3.40;84.60;;;;;;5055750;28;20037;-62
2020/12/25 07:34:22;;;;;;;6.70;3.28;;;3.50;84.80;;;;;;5022190;28;20116;-61
2020/12/25 07:36:50;;;;;;;5.13;3.22;;;3.50;84.90;;;;;;5060259;28;20025;-62
2020/12/25 07:39:16;;;;;;;5.00;3.30;;;3.60;84.40;;;;;;5055274;28;20108;-62
2020/12/25 07:41:42;;;;;;;6.38;3.25;;;3.70;84.80;;;;;;5053252;28;20087;-61
2020/12/25 07:44:08;;;;;;;6.80;2.92;;;3.70;83.50;;;;;;5050401;28;20025;-63
2020/12/25 07:46:34;;;;;;;5.78;3.30;;;3.70;84.50;;;;;;5052328;28;20059;-62
2020/12/25 07:49:01;;;;;;;5.03;3.25;;;3.70;83.70;;;;;;5065724;28;20104;-62
2020/12/25 07:51:27;;;;;;;6.28;3.35;;;3.70;83.60;;;;;;5072230;28;20032;-63
2020/12/25 07:53:57;;;;;;;6.40;3.35;;;3.60;84.50;;;;;;5063739;28;20087;-62
2020/12/25 07:56:34;;;;;;;6.30;3.80;;;3.60;84.50;;;;;;5033713;28;20028;-63
2020/12/25 07:59:00;;;;;;;9.15;3.47;;;3.70;84.20;;;;;;5052543;28;20155;-63
2020/12/25 08:01:28;;;;;;;6.63;3.75;;;3.70;84.30;;;;;;5052250;28;20116;-63
2020/12/25 08:04:00;;;;;;;8.73;3.72;;;3.70;84.70;;;;;;5051768;28;20190;-63
2020/12/25 08:06:27;;;;;;;5.50;3.42;;;3.70;84.70;;;;;;5052407;28;20040;-63
2020/12/25 08:08:58;;;;;;;6.13;3.20;;;3.80;84.30;;;;;;5052226;28;20403;-63
2020/12/25 08:11:25;;;;;;;5.30;3.45;;;3.90;83.60;;;;;;5034758;28;20463;-63
2020/12/25 08:13:55;;;;;;;4.82;3.42;;;3.80;83.70;;;;;;5052144;28;20029;-63
2020/12/25 08:16:21;;;;;;;5.82;3.53;;;3.80;84.30;;;;;;5054141;28;20831;-62
2020/12/25 08:18:48;;;;;;;7.97;4.07;;;3.70;84.10;;;;;;5058938;28;20033;-62
2020/12/25 08:21:15;;;;;;;6.47;3.42;;;3.70;84.40;;;;;;5043029;28;20488;-62
2020/12/25 08:23:40;;;;;;;6.47;3.40;;;3.70;83.90;;;;;;5059960;28;20075;-63
2020/12/25 08:26:07;;;;;;;5.88;3.20;;;3.60;84.00;;;;;;5058938;28;20071;-62
2020/12/25 08:28:33;;;;;;;11.65;3.50;;;3.60;83.90;;;;;;5056820;28;20037;-61
2020/12/25 08:31:16;;;;;;;5.85;3.60;;;3.50;84.70;;;;;;5052429;28;20041;-63
2020/12/25 08:33:50;;;;;;;8.32;4.18;;;3.50;84.80;;;;;;5052023;28;20029;-62
2020/12/25 08:36:16;;;;;;;7.68;4.15;;;3.50;85.40;;;;;;5052125;28;20091;-62
2020/12/25 08:38:43;;;;;;;7.80;3.05;;;3.60;85.10;;;;;;5052364;28;20041;-62
2020/12/25 08:41:11;;;;;;;5.75;2.95;;;3.80;84.80;;;;;;5051481;28;20025;-63
2020/12/25 08:43:37;;;;;;;5.65;3.25;;;3.80;84.50;;;;;;5049788;28;20067;-63
2020/12/25 08:46:03;;;;;;;9.15;3.63;;;3.90;84.10;;;;;;5051958;28;20033;-63
2020/12/25 08:48:30;;;;;;;6.53;3.65;;;3.90;83.80;;;;;;5061547;28;20040;-63
2020/12/25 08:51:08;;;;;;;4.78;3.50;;;3.90;83.80;;;;;;5071635;28;20032;-61
2020/12/25 08:53:34;;;;;;;6.18;3.88;;;4.00;83.60;;;;;;5065526;28;20036;-61
2020/12/25 08:56:16;;;;;;;5.95;3.53;;;3.90;84.00;;;;;;5051784;28;20033;-61
2020/12/25 08:58:57;;;;;;;7.10;3.92;;;3.90;84.60;;;;;;5052851;28;20021;-61
2020/12/25 09:01:23;;;;;;;12.45;6.68;;;3.80;84.80;;;;;;5052604;28;20033;-63
2020/12/25 09:03:50;;;;;;;8.18;4.68;;;3.80;84.70;;;;;;5051723;28;20488;-62
2020/12/25 09:06:16;;;;;;;10.23;4.82;;;3.80;83.80;;;;;;5051129;28;20037;-62
2020/12/25 09:08:42;;;;;;;8.68;5.72;;;3.80;84.40;;;;;;5054484;28;20384;-62
2020/12/25 09:11:09;;;;;;;6.30;4.72;;;3.80;84.00;;;;;;5055392;28;20033;-62
2020/12/25 09:13:38;;;;;;;8.57;4.75;;;3.80;84.40;;;;;;5054883;28;20369;-62
2020/12/25 09:16:07;;;;;;;7.55;5.13;;;3.90;84.80;;;;;;5055320;28;20017;-63
2020/12/25 09:18:34;;;;;;;10.13;6.60;;;3.70;85.30;;;;;;5055554;28;20033;-62
2020/12/25 09:21:00;;;;;;;13.20;6.53;;;3.80;85.60;;;;;;5055590;28;20041;-63
2020/12/25 09:23:27;;;;;;;11.13;6.28;;;3.70;86.20;;;;;;5055417;28;20021;-63
2020/12/25 09:25:53;;;;;;;10.13;5.30;;;3.70;87.10;;;;;;5036675;28;20068;-61
2020/12/25 09:28:18;;;;;;;8.93;4.47;;;3.60;87.40;;;;;;5055121;28;20052;-61
2020/12/25 09:30:44;;;;;;;8.75;4.63;;;3.60;87.40;;;;;;5054704;28;20151;-63
2020/12/25 09:33:09;;;;;;;10.52;5.53;;;3.80;86.60;;;;;;5055080;28;20036;-61
2020/12/25 09:35:35;;;;;;;10.75;5.50;;;3.60;86.60;;;;;;5054663;28;20397;-62
2020/12/25 09:38:00;;;;;;;13.13;6.45;;;3.60;86.60;;;;;;5054604;28;20025;-62
2020/12/25 09:40:26;;;;;;;10.55;6.38;;;3.70;87.00;;;;;;5054243;28;20116;-64
2020/12/25 09:42:52;;;;;;;11.00;5.65;;;3.60;86.00;;;;;;5052591;28;20460;-64
2020/12/25 09:45:17;;;;;;;10.20;5.75;;;3.50;87.40;;;;;;5052976;28;20041;-63
2020/12/25 09:47:43;;;;;;;12.50;5.80;;;3.50;87.10;;;;;;5057172;28;20035;-63
2020/12/25 09:50:08;;;;;;;10.63;5.85;;;3.50;86.60;;;;;;5056327;28;20375;-63
2020/12/25 09:52:35;;;;;;;11.15;7.43;;;3.10;88.40;;;;;;5074500;28;20040;-63
2020/12/25 09:55:00;;;;;;;11.68;5.75;;;3.20;88.20;;;;;;5056488;28;20039;-63
2020/12/25 09:57:26;;;;;;;7.40;5.07;;;3.30;87.70;;;;;;5054435;28;20037;-63
2020/12/25 09:59:54;;;;;;;7.80;4.30;;;3.10;88.80;;;;;;5054395;28;20116;-63
2020/12/25 10:02:20;;;;;;;6.15;4.10;;;3.30;88.20;;;;;;5054131;28;20033;-62
2020/12/25 10:04:46;;;;;;;6.70;4.68;;;3.30;88.10;;;;;;5054358;28;20037;-62
2020/12/25 10:07:11;;;;;;;6.30;3.92;;;3.30;87.60;;;;;;5057950;28;20120;-62
2020/12/25 10:09:40;;;;;;;6.20;4.22;;;3.20;87.40;;;;;;5062462;28;20033;-62
2020/12/25 10:12:06;;;;;;;5.32;4.28;;;3.20;87.60;;;;;;5059511;28;20033;-63
2020/12/25 10:14:32;;;;;;;6.00;4.30;;;3.30;87.50;;;;;;5054640;28;20112;-61
2020/12/25 10:16:58;;;;;;;8.02;4.32;;;3.30;87.80;;;;;;5056179;28;20499;-62
2020/12/25 10:19:23;;;;;;;4.75;4.22;;;3.40;88.20;;;;;;5054991;28;20039;-62
2020/12/25 10:21:50;;;;;;;6.75;4.40;;;3.40;87.00;;;;;;5055655;28;20037;-63
2020/12/25 10:24:16;;;;;;;6.22;4.22;;;3.40;87.20;;;;;;5057369;28;20029;-62
2020/12/25 10:26:41;;;;;;;6.10;3.97;;;3.50;87.30;;;;;;5059384;28;20458;-62
2020/12/25 10:29:07;;;;;;;5.32;4.20;;;3.40;87.40;;;;;;5063461;28;20153;-63
2020/12/25 10:31:33;;;;;;;6.60;4.28;;;3.30;87.20;;;;;;5058024;28;20033;-62
2020/12/25 10:33:58;;;;;;;8.60;4.78;;;3.40;87.20;;;;;;5054280;28;20044;-62
2020/12/25 10:36:25;;;;;;;6.03;4.28;;;3.40;86.80;;;;;;5053931;28;20033;-63
2020/12/25 10:38:51;;;;;;;7.68;4.63;;;3.50;86.90;;;;;;5036258;28;20459;-60
2020/12/25 10:41:17;;;;;;;6.05;4.47;;;3.60;86.70;;;;;;5054363;28;20021;-61
2020/12/25 10:43:43;;;;;;;9.68;4.70;;;3.60;86.10;;;;;;5052583;28;20055;-62
2020/12/25 10:46:08;;;;;;;7.80;4.38;;;3.70;85.60;;;;;;5052138;28;20120;-60
2020/12/25 10:48:34;;;;;;;6.22;4.13;;;3.70;84.80;;;;;;5063605;28;20032;-61
2020/12/25 10:51:00;;;;;;;6.18;3.38;;;3.60;84.90;;;;;;5073404;28;20068;-61
2020/12/25 10:53:26;;;;;;;5.13;3.30;;;3.60;82.00;;;;;;5068516;28;20035;-56
2020/12/25 10:55:51;;;;;;;5.25;3.00;;;3.70;81.70;;;;;;5052876;28;20459;-60
2020/12/25 10:58:17;;;;;;;5.07;2.95;;;3.70;80.50;;;;;;5053288;28;20120;-59
2020/12/25 11:00:42;;;;;;;6.72;2.83;;;3.70;80.50;;;;;;5053559;28;20403;-63
2020/12/25 11:03:08;;;;;;;4.85;3.30;;;3.70;79.20;;;;;;5053283;28;20029;-61
2020/12/25 11:05:33;;;;;;;5.22;3.20;;;3.80;80.10;;;;;;5035428;28;20041;-61
2020/12/25 11:08:01;;;;;;;4.72;3.53;;;3.60;81.00;;;;;;5053516;28;20044;-60
2020/12/25 11:10:27;;;;;;;6.45;3.75;;;3.40;82.10;;;;;;5035013;28;20039;-59
2020/12/25 11:12:52;;;;;;;7.85;3.40;;;3.30;83.00;;;;;;5052829;28;20053;-59
2020/12/25 11:15:18;;;;;;;6.80;3.72;;;3.40;82.90;;;;;;5052983;28;20048;-59
2020/12/25 11:17:43;;;;;;;12.55;5.60;;;3.30;82.00;;;;;;5053353;28;20029;-63
2020/12/25 11:20:09;;;;;;;7.95;3.90;;;3.40;82.50;;;;;;5035148;28;20040;-60
2020/12/25 11:22:35;;;;;;;8.43;3.90;;;3.30;81.60;;;;;;5052938;28;20387;-59
2020/12/25 11:25:00;;;;;;;7.90;3.45;;;3.40;80.40;;;;;;5035185;28;20139;-58
2020/12/25 11:27:26;;;;;;;4.82;3.60;;;3.40;79.10;;;;;;5035241;28;20044;-62
2020/12/25 11:29:52;;;;;;;4.28;3.70;;;3.30;78.10;;;;;;5052749;28;20056;-59
2020/12/25 11:32:19;;;;;;;6.93;4.10;;;3.30;78.60;;;;;;5035301;28;20400;-63
2020/12/25 11:34:44;;;;;;;6.10;3.67;;;3.30;78.30;;;;;;5053208;28;20036;-61
2020/12/25 11:37:10;;;;;;;4.00;3.60;;;3.30;78.10;;;;;;5053176;28;20021;-61
2020/12/25 11:39:38;;;;;;;5.97;3.88;;;3.30;78.70;;;;;;5053472;28;20028;-60
2020/12/25 11:42:04;;;;;;;7.15;4.43;;;3.30;78.00;;;;;;5053289;28;20033;-62
2020/12/25 11:44:29;;;;;;;7.82;4.30;;;3.20;78.80;;;;;;5035234;28;20120;-60
2020/12/25 11:47:01;;;;;;;4.78;4.28;;;3.20;79.50;;;;;;5053856;28;20503;-60
2020/12/25 11:49:27;;;;;;;6.85;4.93;;;3.10;80.20;;;;;;5071705;28;20044;-58
2020/12/25 11:51:58;;;;;;;7.75;5.32;;;3.00;80.90;;;;;;5075388;28;20548;-60
2020/12/25 11:54:24;;;;;;;6.63;4.18;;;3.00;81.80;;;;;;5065618;28;20033;-61
2020/12/25 11:56:52;;;;;;;5.88;4.93;;;3.20;81.00;;;;;;5060549;28;20055;-63
2020/12/25 11:59:18;;;;;;;8.43;4.45;;;3.30;80.80;;;;;;5056321;28;20029;-60
2020/12/25 12:01:45;;;;;;;7.65;4.60;;;3.40;81.10;;;;;;5054543;28;20086;-60
2020/12/25 12:04:11;;;;;;;6.25;4.93;;;3.50;80.60;;;;;;5054670;28;20029;-61
2020/12/25 12:06:36;;;;;;;8.85;4.00;;;3.50;79.60;;;;;;5035595;28;20040;-59
2020/12/25 12:09:02;;;;;;;5.43;3.90;;;3.40;76.60;;;;;;5052585;28;20032;-58
2020/12/25 12:11:31;;;;;;;6.07;3.38;;;3.40;75.60;;;;;;5034942;28;20025;-59
2020/12/25 12:13:56;;;;;;;7.88;3.40;;;3.40;75.50;;;;;;5052905;28;20037;-62
2020/12/25 12:16:24;;;;;;;3.80;2.83;;;3.40;72.70;;;;;;5053072;28;20151;-60
2020/12/25 12:18:51;;;;;;;3.90;2.83;;;3.40;70.40;;;;;;5054105;28;20029;-59
2020/12/25 12:21:17;;;;;;;4.15;2.92;;;3.50;70.10;;;;;;5054489;28;20033;-62
2020/12/25 12:23:43;;;;;;;5.85;3.35;;;3.50;69.80;;;;;;5053785;28;20563;-62
2020/12/25 12:26:10;;;;;;;6.22;3.15;;;3.40;69.50;;;;;;5051054;28;20055;-63
2020/12/25 12:28:36;;;;;;;4.75;2.80;;;3.40;67.90;;;;;;5052717;28;20111;-65
2020/12/25 12:31:01;;;;;;;4.50;3.00;;;3.40;67.80;;;;;;5051341;28;20486;-62
2020/12/25 12:33:27;;;;;;;4.32;3.17;;;3.50;67.60;;;;;;5034718;28;20059;-62
2020/12/25 12:35:53;;;;;;;5.43;2.97;;;3.70;67.00;;;;;;5052058;28;20033;-65
2020/12/25 12:38:18;;;;;;;7.40;3.05;;;3.90;66.20;;;;;;5052072;28;20040;-62
2020/12/25 12:40:47;;;;;;;6.22;2.70;;;3.80;66.20;;;;;;5052915;28;20037;-64
2020/12/25 12:43:12;;;;;;;4.32;2.70;;;3.70;66.40;;;;;;5052750;28;20092;-64
2020/12/25 12:45:38;;;;;;;5.40;2.70;;;3.70;66.40;;;;;;5056152;28;20065;-64
2020/12/25 12:48:04;;;;;;;3.67;2.42;;;3.80;67.10;;;;;;5061838;28;20518;-63
2020/12/25 12:50:29;;;;;;;4.78;2.50;;;3.90;67.20;;;;;;5076040;28;20383;-62
2020/12/25 12:52:55;;;;;;;5.68;2.50;;;3.80;67.30;;;;;;5056909;28;20036;-64